Home > Products > Valid Products > MTR

000
SAUS45 KREV 270957
MTRDRA
METAR KDRA 270952Z AUTO 03008KT 10SM CLR 19/01 A2993 RMK AO2 SLP089
T01940011





000
SAUS45 KREV 270857
MTRDRA
METAR KDRA 270852Z AUTO 17006KT 10SM CLR 19/00 A2993 RMK AO2 SLP089
T01940000 53004





000
SAUS45 KREV 270857
MTRDRA
METAR KDRA 270852Z AUTO 17006KT 10SM CLR 19/00 A2993 RMK AO2 SLP089
T01940000 53004





000
SAUS45 KREV 270757
MTRDRA
METAR KDRA 270752Z AUTO 20011KT 10SM CLR 24/01 A2992 RMK AO2 SLP083
T02390006 403060144





000
SAUS45 KREV 270757
MTRDRA
METAR KDRA 270752Z AUTO 20011KT 10SM CLR 24/01 A2992 RMK AO2 SLP083
T02390006 403060144





000
SAUS45 KREV 270657
MTRDRA
METAR KDRA 270652Z AUTO 00000KT 10SM CLR 23/M01 A2992 RMK AO2 SLP084
T02281011





000
SAUS45 KREV 270557
MTRDRA
METAR KDRA 270552Z AUTO 20010KT 10SM CLR 24/M03 A2991 RMK AO2 SLP083
T02441028 10300 20239 50010





000
SAUS45 KREV 270457
MTRDRA
METAR KDRA 270452Z AUTO 22006KT 10SM CLR 24/M02 A2991 RMK AO2 SLP085
T02441022





000
SAUS45 KREV 270357
MTRDRA
METAR KDRA 270352Z AUTO 22007KT 10SM CLR 25/M02 A2990 RMK AO2 SLP080
T02501017





000
SAUS45 KREV 270357
MTRDRA
METAR KDRA 270352Z AUTO 22007KT 10SM CLR 25/M02 A2990 RMK AO2 SLP080
T02501017





000
SAUS45 KREV 270256
MTRDRA
METAR KDRA 270252Z AUTO 22010KT 10SM CLR 26/M02 A2988 RMK AO2 SLP074
T02611022 53004





000
SAUS45 KREV 270156
MTRDRA
METAR KDRA 270152Z AUTO 23012G18KT 10SM CLR 28/M02 A2987 RMK AO2
SLP073 T02831022





000
SAUS45 KREV 270057
MTRDRA
METAR KDRA 270052Z AUTO 24010G18KT 10SM CLR 29/M02 A2987 RMK AO2
SLP070 T02941017





000
SAUS45 KREV 270057
MTRDRA
METAR KDRA 270052Z AUTO 24010G18KT 10SM CLR 29/M02 A2987 RMK AO2
SLP070 T02941017





000
SAUS45 KREV 262357
MTRDRA
METAR KDRA 262352Z AUTO 22015G23KT 10SM CLR 30/M01 A2987 RMK AO2
SLP072 T03001006 10306 20261 56014





000
SAUS45 KREV 262257
MTRDRA
METAR KDRA 262252Z AUTO 21016G25KT 10SM CLR 30/M01 A2988 RMK AO2 PK
WND 23027/2205 SLP075 T03001006





000
SAUS45 KREV 262157
MTRDRA
METAR KDRA 262152Z AUTO 22014G21KT 10SM CLR 31/M02 A2990 RMK AO2
SLP078 T03061017





000
SAUS45 KREV 262057
MTRDRA
METAR KDRA 262052Z AUTO 22009KT 190V260 10SM CLR 29/00 A2992 RMK AO2
SLP086 T02940000 58013





000
SAUS45 KREV 261957
MTRDRA
METAR KDRA 261952Z AUTO VRB04KT 10SM CLR 28/02 A2994 RMK AO2 SLP094
T02830022





000
SAUS45 KREV 261957
MTRDRA
METAR KDRA 261952Z AUTO VRB04KT 10SM CLR 28/02 A2994 RMK AO2 SLP094
T02830022





000
SAUS45 KREV 261857
MTRDRA
METAR KDRA 261852Z AUTO 26007G15KT 10SM CLR 28/04 A2995 RMK AO2
SLP097 T02780039





000
SAUS45 KREV 261857
MTRDRA
METAR KDRA 261852Z AUTO 26007G15KT 10SM CLR 28/04 A2995 RMK AO2
SLP097 T02780039





000
SAUS45 KREV 261757
MTRDRA
METAR KDRA 261752Z AUTO VRB04KT 10SM CLR 26/04 A2996 RMK AO2 SLP099
T02610044 10267 20144 58003





000
SAUS45 KREV 261757
MTRDRA
METAR KDRA 261752Z AUTO VRB04KT 10SM CLR 26/04 A2996 RMK AO2 SLP099
T02610044 10267 20144 58003





000
SAUS45 KREV 261657
MTRDRA
METAR KDRA 261652Z AUTO 33004KT 10SM CLR 24/04 A2997 RMK AO2 SLP103
T02440044





000
SAUS45 KREV 261657
MTRDRA
METAR KDRA 261652Z AUTO 33004KT 10SM CLR 24/04 A2997 RMK AO2 SLP103
T02440044





000
SAUS45 KREV 261557
MTRDRA
METAR KDRA 261552Z AUTO 24004KT 10SM CLR 23/04 A2997 RMK AO2 SLP105
T02280044





000
SAUS45 KREV 261456
MTRDRA
METAR KDRA 261452Z AUTO 00000KT 10SM CLR 21/07 A2997 RMK AO2 SLP104
T02110067 52008





000
SAUS45 KREV 261357
MTRDRA
METAR KDRA 261352Z AUTO 00000KT 10SM CLR 17/07 A2996 RMK AO2 SLP104
T01720067





000
SAUS45 KREV 261257
MTRDRA
METAR KDRA 261252Z AUTO 00000KT 10SM CLR 17/06 A2995 RMK AO2 SLP100
T01670061





000
SAUS45 KREV 261157
MTRDRA
METAR KDRA 261152Z AUTO 00000KT 10SM CLR 16/06 A2994 RMK AO2 SLP098
T01560061 10250 20156 53007





000
SAUS45 KREV 261057
MTRDRA
METAR KDRA 261052Z AUTO 03004KT 10SM CLR 17/06 A2993 RMK AO2 SLP094
T01670056





000
SAUS45 KREV 260957
MTRDRA
METAR KDRA 260952Z AUTO VRB03KT 10SM CLR 19/06 A2993 RMK AO2 SLP090
T01940056





000
SAUS45 KREV 260856
MTRDRA
METAR KDRA 260852Z AUTO 31003KT 10SM FEW120 19/06 A2992 RMK AO2
SLP088 T01940056 51007





000
SAUS45 KREV 260856
MTRDRA
METAR KDRA 260852Z AUTO 31003KT 10SM FEW120 19/06 A2992 RMK AO2
SLP088 T01940056 51007





000
SAUS45 KREV 260757
MTRDRA
METAR KDRA 260752Z AUTO VRB03KT 10SM SCT120 21/04 A2991 RMK AO2
SLP086 T02110044 402940122





000
SAUS45 KREV 260757
MTRDRA
METAR KDRA 260752Z AUTO VRB03KT 10SM SCT120 21/04 A2991 RMK AO2
SLP086 T02110044 402940122





000
SAUS45 KREV 260657
MTRDRA
METAR KDRA 260652Z AUTO VRB03KT 10SM SCT120 22/05 A2991 RMK AO2
SLP085 T02220050





000
SAUS45 KREV 260557
MTRDRA
METAR KDRA 260552Z AUTO 20006KT 10SM BKN110 25/01 A2989 RMK AO2
SLP078 T02500011 10294 20244 53014





000
SAUS45 KREV 260457
MTRDRA
METAR KDRA 260452Z AUTO 17006KT 10SM CLR 24/01 A2988 RMK AO2 SLP075
T02440011





000
SAUS45 KREV 260357
MTRDRA
METAR KDRA 260352Z AUTO 19005KT 10SM CLR 25/01 A2986 RMK AO2 SLP068
T02500006





000
SAUS45 KREV 260257
MTRDRA
METAR KDRA 260252Z AUTO 19007KT 10SM CLR 26/01 A2985 RMK AO2 SLP066
T02610006 55003





000
SAUS45 KREV 260157
MTRDRA
METAR KDRA 260152Z AUTO 20010KT 10SM CLR 27/01 A2984 RMK AO2 WSHFT
0041 SLP064 T02720006





000
SAUS45 KREV 260103
MTRDRA
SPECI KDRA 260058Z AUTO 23012KT 10SM FEW100 28/02 A2983 RMK AO2
WSHFT 0041 T02830017





000
SAUS45 KREV 260103
MTRDRA
SPECI KDRA 260058Z AUTO 23012KT 10SM FEW100 28/02 A2983 RMK AO2
WSHFT 0041 T02830017





000
SAUS45 KREV 260057
MTRDRA
METAR KDRA 260052Z AUTO 22014G19KT 10SM FEW100 28/02 A2984 RMK AO2
SLP064 T02830017





000
SAUS45 KREV 260057
MTRDRA
METAR KDRA 260052Z AUTO 22014G19KT 10SM FEW100 28/02 A2984 RMK AO2
SLP064 T02830017





000
SAUS45 KREV 252357
MTRDRA
METAR KDRA 252352Z AUTO 16008KT 10SM BKN095 BKN110 28/04 A2986 RMK
AO2 SLP070 T02830044 10294 20228 56021





000
SAUS45 KREV 252357
MTRDRA
METAR KDRA 252352Z AUTO 16008KT 10SM BKN095 BKN110 28/04 A2986 RMK
AO2 SLP070 T02830044 10294 20228 56021





000
SAUS45 KREV 252257
MTRDRA
METAR KDRA 252252Z AUTO 24012G16KT 10SM SCT110 28/05 A2988 RMK AO2
SLP077 T02830050





000
SAUS45 KREV 252257
MTRDRA
METAR KDRA 252252Z AUTO 24012G16KT 10SM SCT110 28/05 A2988 RMK AO2
SLP077 T02830050





000
SAUS45 KREV 252157
MTRDRA
METAR KDRA 252152Z AUTO 23008KT 10SM CLR 28/04 A2990 RMK AO2 SLP085
T02780044





000
SAUS45 KREV 252057
MTRDRA
METAR KDRA 252052Z AUTO 27010G16KT 10SM CLR 27/04 A2992 RMK AO2
SLP092 T02720044 58010





000
SAUS45 KREV 251957
MTRDRA
METAR KDRA 251952Z AUTO VRB04KT 10SM CLR 27/04 A2994 RMK AO2 SLP098
T02670044





000
SAUS45 KREV 251857
MTRDRA
METAR KDRA 251852Z AUTO VRB03KT 10SM CLR 24/07 A2995 RMK AO2 SLP104
T02440067





000
SAUS45 KREV 251857
MTRDRA
METAR KDRA 251852Z AUTO VRB03KT 10SM CLR 24/07 A2995 RMK AO2 SLP104
T02440067





000
SAUS45 KREV 251757
MTRDRA
METAR KDRA 251752Z AUTO 00000KT 10SM CLR 23/08 A2996 RMK AO2 SLP108
T02330078 10233 20122 50000





000
SAUS45 KREV 251657
MTRDRA
METAR KDRA 251652Z AUTO 11006KT 10SM CLR 21/09 A2996 RMK AO2 SLP109
T02110089





000
SAUS45 KREV 251657
MTRDRA
METAR KDRA 251652Z AUTO 11006KT 10SM CLR 21/09 A2996 RMK AO2 SLP109
T02110089





000
SAUS45 KREV 251557
MTRDRA
METAR KDRA 251552Z AUTO 14003KT 10SM CLR 20/10 A2996 RMK AO2 SLP111
T02000100





000
SAUS45 KREV 251457
MTRDRA
METAR KDRA 251452Z AUTO 12008KT 10SM CLR 17/10 A2996 RMK AO2 SLP111
T01670100 51010





000
SAUS45 KREV 250958
MTRDRA
METAR KDRA 250952Z AUTO 07006KT 10SM CLR 14/11 A2992 RMK AO2 SLP094
T01440106





000
SAUS45 KREV 250958
MTRDRA
METAR KDRA 250952Z AUTO 07006KT 10SM CLR 14/11 A2992 RMK AO2 SLP094
T01440106





000
SAUS45 KREV 250759
MTRDRA
METAR KDRA 250752Z AUTO 32003KT 10SM FEW100 16/12 A2993 RMK AO2
SLP095 T01610122 402720139





000
SAUS45 KREV 250759
MTRDRA
METAR KDRA 250752Z AUTO 32003KT 10SM FEW100 16/12 A2993 RMK AO2
SLP095 T01610122 402720139





000
SAUS45 KREV 250657
MTRDRA
METAR KDRA 250652Z AUTO 08003KT 10SM BKN110 17/12 A2991 RMK AO2
SLP092 T01670117





000
SAUS45 KREV 250657
MTRDRA
METAR KDRA 250652Z AUTO 08003KT 10SM BKN110 17/12 A2991 RMK AO2
SLP092 T01670117





000
SAUS45 KREV 250300
MTRDRA
METAR KDRA 250252Z AUTO 02018G26KT 10SM -RA (ULS`LHL)S$PNNRMK AO2 PK WND 03027/0157 WSHFT 0146 RAB30 SLP07$*LL 60000
T01830111 53011





000
SAUS45 KREV 250300
MTRDRA
METAR KDRA 250252Z AUTO 02018G26KT 10SM -RA (ULS`LHL)S$PNNRMK AO2 PK WND 03027/0157 WSHFT 0146 RAB30 SLP07$*LL 60000
T01830111 53011





000
SAUS45 KREV 250210
MTRDRA
SPECI KDRA 250203Z AUTO 02018G27KT 10SM BKN100 BKN110 23/06 A2983
RMK AO2 PK WND 03027/0157 WSHFT 0146 T02330061





000
SAUS45 KREV 250158
MTRDRA
METAR KDRA 250152Z AUTO 03017G26KT 10SM SCT090 BKN110 23/06 A2983
RMK AO2 PK WND 32026/0147 SLP064 T02330061





000
SAUS45 KREV 250158
MTRDRA
METAR KDRA 250152Z AUTO 03017G26KT 10SM SCT090 BKN110 23/06 A2983
RMK AO2 PK WND 32026/0147 SLP064 T02330061





000
SAUS45 KREV 241257
MTRDRA
METAR KDRA 241252Z AUTO 14003KT 10SM BKN100 14/11 A2993 RMK AO2
RAB1157E08 SLP100 P0000 T01390111





000
SAUS45 KREV 241157
MTRDRA
METAR KDRA 241152Z AUTO 32005KT 10SM BKN070 OVC090 14/11 A2992 RMK
AO2 SLP097 60000 70001 T01440106 10194 20139 51001





000
SAUS45 KREV 241057
MTRDRA
METAR KDRA 241052Z AUTO 30008KT 10SM OVC080 16/09 A2992 RMK AO2
SLP095 T01560089





    US Dept of Commerce
    National Oceanic and Atmospheric Administration
    National Weather Service
    1325 East West Highway
    Silver Spring, MD 20910
    Page Author: NWS Internet Services Team
Disclaimer
Information Quality
Credits
Glossary
Privacy Policy
Freedom of Information Act (FOIA)
About Us
Career Opportunities